createdAt,value
2022-10-31T00:00:30.775Z,61.16
2022-10-31T00:01:30.736Z,61.29
2022-10-31T00:02:30.869Z,61.09
2022-10-31T00:03:30.693Z,61.17
2022-10-31T00:04:30.719Z,63.31
2022-10-31T00:05:30.677Z,61.34
2022-10-31T00:06:30.689Z,60.67
2022-10-31T00:07:30.663Z,62.59
2022-10-31T00:08:30.646Z,62.21
2022-10-31T00:09:30.639Z,61.09
2022-10-31T00:10:30.615Z,63.26
2022-10-31T00:11:30.650Z,62.81
2022-10-31T00:12:30.606Z,64.06
2022-10-31T00:13:30.604Z,62.47
2022-10-31T00:14:30.579Z,59.27
2022-10-31T00:15:30.579Z,59.45
2022-10-31T00:16:30.574Z,60.63
2022-10-31T00:17:30.559Z,65.08
2022-10-31T00:18:30.533Z,62.52
2022-10-31T00:19:30.538Z,63.58
2022-10-31T00:20:30.523Z,63.60
2022-10-31T00:21:30.529Z,60.27
2022-10-31T00:22:30.491Z,60.94
2022-10-31T00:23:30.501Z,60.22
2022-10-31T00:24:30.486Z,59.91
2022-10-31T00:25:30.470Z,62.44
2022-10-31T00:26:30.481Z,63.05
2022-10-31T00:27:30.447Z,62.54
2022-10-31T00:28:30.446Z,64.17
2022-10-31T00:29:30.439Z,62.41
2022-10-31T00:30:30.423Z,63.70
2022-10-31T00:31:30.427Z,62.69
2022-10-31T00:33:02.624Z,61.92
2022-10-31T00:33:30.391Z,60.93
2022-10-31T00:34:30.382Z,62.81
2022-10-31T00:35:30.375Z,60.09
2022-10-31T00:36:30.378Z,62.50
2022-10-31T00:37:30.346Z,62.64
2022-10-31T00:38:30.346Z,63.24
2022-10-31T00:39:30.331Z,63.79
2022-10-31T00:40:30.322Z,61.79
2022-10-31T00:41:30.319Z,62.33
2022-10-31T00:42:30.305Z,59.61
2022-10-31T00:43:30.290Z,59.61
2022-10-31T00:44:30.289Z,60.37
2022-10-31T00:45:30.268Z,57.71
2022-10-31T00:46:30.281Z,58.31
2022-10-31T00:47:30.256Z,60.48
2022-10-31T00:48:30.247Z,60.36
2022-10-31T00:49:30.230Z,61.48
2022-10-31T00:50:30.226Z,61.16
2022-10-31T00:51:30.236Z,62.30
2022-10-31T00:52:30.199Z,59.50
2022-10-31T00:53:30.199Z,59.28
2022-10-31T00:54:30.178Z,60.52
2022-10-31T00:55:30.175Z,61.74
2022-10-31T00:56:30.189Z,61.39
2022-10-31T00:57:30.142Z,59.57
2022-10-31T00:58:30.154Z,59.88
2022-10-31T00:59:30.129Z,59.93
2022-10-31T01:00:30.126Z,60.07
2022-10-31T01:01:30.289Z,59.57
2022-10-31T01:02:30.238Z,60.16
2022-10-31T01:03:30.085Z,56.06
2022-10-31T01:04:30.078Z,60.35
2022-10-31T01:05:30.072Z,61.60
2022-10-31T01:06:30.067Z,61.17
2022-10-31T01:07:30.051Z,59.13
2022-10-31T01:08:30.040Z,61.22
2022-10-31T01:09:30.024Z,62.33
2022-10-31T01:10:30.029Z,61.78
2022-10-31T01:11:30.034Z,61.62
2022-10-31T01:12:30.000Z,60.59
2022-10-31T01:13:29.985Z,60.76
2022-10-31T01:14:29.975Z,62.59
2022-10-31T01:15:29.971Z,61.91
2022-10-31T01:16:29.978Z,62.10
2022-10-31T01:17:29.949Z,63.15
2022-10-31T01:18:29.940Z,62.27
2022-10-31T01:19:29.927Z,60.88
2022-10-31T01:20:29.920Z,61.61
2022-10-31T01:21:29.946Z,60.82
2022-10-31T01:22:29.894Z,62.32
2022-10-31T01:23:29.888Z,63.40
2022-10-31T01:24:29.881Z,62.05
2022-10-31T01:25:29.858Z,60.42
2022-10-31T01:26:29.878Z,61.97
2022-10-31T01:27:29.844Z,61.79
2022-10-31T01:28:29.837Z,59.40
2022-10-31T01:29:29.819Z,61.25
2022-10-31T01:30:29.812Z,56.84
2022-10-31T01:31:29.825Z,60.48
2022-10-31T01:32:29.795Z,61.43
2022-10-31T01:33:29.770Z,63.16
2022-10-31T01:34:29.762Z,60.49
2022-10-31T01:35:29.766Z,62.87
2022-10-31T01:36:29.776Z,60.58
2022-10-31T01:37:29.739Z,59.50
2022-10-31T01:38:29.730Z,62.30
2022-10-31T01:39:29.716Z,62.75
2022-10-31T01:40:29.713Z,59.87
2022-10-31T01:41:29.703Z,62.98
2022-10-31T01:42:29.694Z,61.28
2022-10-31T01:43:29.685Z,61.55
2022-10-31T01:44:29.675Z,61.02
2022-10-31T01:45:29.663Z,59.90
2022-10-31T01:46:29.664Z,63.52
2022-10-31T01:47:29.649Z,60.14
2022-10-31T01:48:29.635Z,62.74
2022-10-31T01:49:29.621Z,60.41
2022-10-31T01:50:29.614Z,61.20
2022-10-31T01:51:29.628Z,60.54
2022-10-31T01:52:29.599Z,58.78
2022-10-31T01:53:29.599Z,62.63
2022-10-31T01:54:29.573Z,62.73
2022-10-31T01:55:30.388Z,62.45
2022-10-31T01:56:30.581Z,65.90
2022-10-31T01:57:29.538Z,64.83
2022-10-31T01:58:29.532Z,63.75
2022-10-31T01:59:29.530Z,65.12
2022-10-31T02:00:29.509Z,61.11
2022-10-31T02:01:29.649Z,62.66
2022-10-31T02:02:29.626Z,64.27
2022-10-31T02:03:29.484Z,59.03
2022-10-31T02:04:29.476Z,65.70
2022-10-31T02:05:29.466Z,62.34
2022-10-31T02:06:29.476Z,65.45
2022-10-31T02:07:29.445Z,62.61
2022-10-31T02:08:29.439Z,62.79
2022-10-31T02:09:29.421Z,63.43
2022-10-31T02:10:29.411Z,61.06
2022-10-31T02:11:29.423Z,59.48
2022-10-31T02:12:29.392Z,61.36
2022-10-31T02:13:29.381Z,58.43
2022-10-31T02:14:29.377Z,59.73
2022-10-31T02:15:29.369Z,63.72
2022-10-31T02:16:29.367Z,60.93
2022-10-31T02:17:29.342Z,62.33
2022-10-31T02:18:29.339Z,61.03
2022-10-31T02:19:29.326Z,61.50
2022-10-31T02:20:29.312Z,62.00
2022-10-31T02:21:29.311Z,63.59
2022-10-31T02:22:29.295Z,59.63
2022-10-31T02:23:29.282Z,61.86
2022-10-31T02:24:29.278Z,62.87
2022-10-31T02:25:29.252Z,61.85
2022-10-31T02:26:29.280Z,64.99
2022-10-31T02:27:29.253Z,63.86
2022-10-31T02:28:29.237Z,63.54
2022-10-31T02:29:29.221Z,61.82
2022-10-31T02:30:29.225Z,63.86
2022-10-31T02:31:29.220Z,65.09
2022-10-31T02:32:29.196Z,62.32
2022-10-31T02:33:29.177Z,63.04
2022-10-31T02:34:29.168Z,63.61
2022-10-31T02:35:29.162Z,62.09
2022-10-31T02:36:29.171Z,62.38
2022-10-31T02:37:29.150Z,63.61
2022-10-31T02:38:29.138Z,63.09
2022-10-31T02:39:29.131Z,63.39
2022-10-31T02:40:29.115Z,64.51
2022-10-31T02:41:29.111Z,63.53
2022-10-31T02:42:29.093Z,62.78
2022-10-31T02:43:29.089Z,62.91
2022-10-31T02:44:29.077Z,60.74
2022-10-31T02:45:29.057Z,62.82
2022-10-31T02:46:29.071Z,61.98
2022-10-31T02:47:29.045Z,61.52
2022-10-31T02:48:29.040Z,61.43
2022-10-31T02:49:29.025Z,61.51
2022-10-31T02:50:29.015Z,61.55
2022-10-31T02:51:29.027Z,61.79
2022-10-31T02:52:28.994Z,62.29
2022-10-31T02:53:28.982Z,62.47
2022-10-31T02:54:28.964Z,61.20
2022-10-31T02:55:28.958Z,60.97
2022-10-31T02:59:14.076Z,59.01
2022-10-31T03:04:06.583Z,64.35
2022-10-31T03:05:06.564Z,63.61
2022-10-31T03:08:52.821Z,60.46
2022-10-31T03:09:56.585Z,61.12
2022-10-31T03:13:19.071Z,61.32
2022-10-31T03:14:19.019Z,61.84
2022-10-31T03:15:19.016Z,62.94
2022-10-31T03:16:20.146Z,63.35
2022-10-31T03:20:05.974Z,62.22
2022-10-31T03:21:06.033Z,61.26
2022-10-31T03:22:05.235Z,61.57
2022-10-31T03:23:06.327Z,64.42
2022-10-31T03:24:06.373Z,66.97
2022-10-31T03:25:06.317Z,64.55
2022-10-31T03:26:06.325Z,63.00
2022-10-31T03:27:06.321Z,65.39
2022-10-31T03:28:06.552Z,64.61
2022-10-31T03:29:06.280Z,63.07
2022-10-31T03:30:06.265Z,64.69
2022-10-31T03:31:07.398Z,63.71
2022-10-31T03:32:07.265Z,67.71
2022-10-31T03:33:06.231Z,66.00
2022-10-31T03:34:06.211Z,64.91
2022-10-31T03:35:06.219Z,64.60
2022-10-31T03:36:06.241Z,63.28
2022-10-31T03:37:06.210Z,67.06
2022-10-31T03:38:07.881Z,65.48
2022-10-31T03:39:06.179Z,64.65
2022-10-31T03:40:07.108Z,64.71
2022-10-31T03:41:08.172Z,63.12
2022-10-31T03:42:06.170Z,66.51
2022-10-31T03:43:06.140Z,64.59
2022-10-31T03:44:06.134Z,64.39
2022-10-31T03:45:06.117Z,63.79
2022-10-31T03:46:06.109Z,65.95
2022-10-31T03:47:06.111Z,65.23
2022-10-31T03:48:06.098Z,65.20
2022-10-31T03:49:06.081Z,66.86
2022-10-31T03:50:06.075Z,65.80
2022-10-31T03:51:06.067Z,65.93
2022-10-31T03:52:06.072Z,65.44
2022-10-31T03:53:06.028Z,63.69
2022-10-31T03:54:06.059Z,64.91
2022-10-31T03:55:06.025Z,64.58
2022-10-31T03:56:06.022Z,64.43
2022-10-31T03:59:51.107Z,62.49
2022-10-31T04:00:51.101Z,63.80
2022-10-31T04:01:51.213Z,64.59
2022-10-31T04:02:51.079Z,64.96
2022-10-31T04:03:51.065Z,66.16
2022-10-31T04:04:51.063Z,65.64
2022-10-31T04:05:51.050Z,65.70
2022-10-31T04:06:51.045Z,66.96
2022-10-31T04:07:52.160Z,66.55
2022-10-31T04:08:52.132Z,68.88
2022-10-31T04:09:52.134Z,69.53
2022-10-31T04:10:52.116Z,67.07
2022-10-31T04:11:52.108Z,66.67
2022-10-31T04:12:52.112Z,66.15
2022-10-31T04:13:52.087Z,65.71
2022-10-31T04:14:52.081Z,67.43
2022-10-31T04:15:52.063Z,68.55
2022-10-31T04:16:52.063Z,69.01
2022-10-31T04:17:52.072Z,69.67
2022-10-31T04:18:52.052Z,69.83
2022-10-31T04:19:52.035Z,68.72
2022-10-31T04:20:52.025Z,67.69
2022-10-31T04:21:52.018Z,66.55
2022-10-31T04:22:52.029Z,66.03
2022-10-31T04:23:52.000Z,67.34
2022-10-31T04:24:51.984Z,65.55
2022-10-31T04:25:51.981Z,67.70
2022-10-31T04:26:51.971Z,67.34
2022-10-31T04:27:51.958Z,67.06
2022-10-31T04:28:51.952Z,69.06
2022-10-31T04:29:51.943Z,67.04
2022-10-31T04:30:51.935Z,66.28
2022-10-31T04:31:51.905Z,65.50
2022-10-31T04:32:51.925Z,65.28
2022-10-31T04:33:51.901Z,65.36
2022-10-31T04:34:51.895Z,65.11
2022-10-31T04:35:51.875Z,66.12
2022-10-31T04:36:51.870Z,65.43
2022-10-31T04:37:51.875Z,68.52
2022-10-31T04:38:51.849Z,66.43
2022-10-31T04:39:51.845Z,67.12
2022-10-31T04:40:51.827Z,66.70
2022-10-31T04:41:51.819Z,66.77
2022-10-31T04:42:51.828Z,67.36
2022-10-31T04:43:51.794Z,65.15
2022-10-31T04:44:51.804Z,65.25
2022-10-31T04:45:51.778Z,66.14
2022-10-31T04:46:51.772Z,66.48
2022-10-31T04:47:51.795Z,65.62
2022-10-31T04:48:51.747Z,66.72
2022-10-31T04:49:51.742Z,66.58
2022-10-31T04:50:51.730Z,67.04
2022-10-31T04:51:51.717Z,66.68
2022-10-31T04:52:51.734Z,66.93
2022-10-31T04:53:51.706Z,67.13
2022-10-31T04:54:51.688Z,67.91
2022-10-31T04:55:51.688Z,67.53
2022-10-31T04:56:51.672Z,67.64
2022-10-31T04:57:51.678Z,67.98
2022-10-31T04:58:51.651Z,67.23
2022-10-31T04:59:51.644Z,67.35
2022-10-31T05:00:51.644Z,67.31
2022-10-31T05:01:51.721Z,67.25
2022-10-31T05:02:51.635Z,66.63
2022-10-31T05:03:51.599Z,66.38
2022-10-31T05:04:51.584Z,66.28
2022-10-31T05:05:51.584Z,65.03
2022-10-31T05:06:51.572Z,64.18
2022-10-31T05:07:51.575Z,66.35
2022-10-31T05:08:51.555Z,66.53
2022-10-31T05:09:51.541Z,65.92
2022-10-31T05:10:51.525Z,66.71
2022-10-31T05:11:51.514Z,67.12
2022-10-31T05:12:51.526Z,66.47
2022-10-31T05:13:51.504Z,67.59
2022-10-31T05:14:52.484Z,67.16
2022-10-31T05:15:51.461Z,67.59
2022-10-31T05:16:51.461Z,65.94
2022-10-31T05:17:51.470Z,63.84
2022-10-31T05:18:51.447Z,65.68
2022-10-31T05:19:51.437Z,67.65
2022-10-31T05:20:51.423Z,68.05
2022-10-31T05:21:51.425Z,67.38
2022-10-31T05:22:51.427Z,68.14
2022-10-31T05:23:51.404Z,67.78
2022-10-31T05:24:51.390Z,67.34
2022-10-31T05:25:51.384Z,66.51
2022-10-31T05:26:51.374Z,67.24
2022-10-31T05:27:51.380Z,67.39
2022-10-31T05:28:51.352Z,67.40
2022-10-31T05:29:51.374Z,68.10
2022-10-31T05:30:51.331Z,67.56
2022-10-31T05:31:51.311Z,67.04
2022-10-31T05:32:51.320Z,68.55
2022-10-31T05:33:51.306Z,67.46
2022-10-31T05:34:51.287Z,67.56
2022-10-31T05:35:51.282Z,67.45
2022-10-31T05:36:51.268Z,69.00
2022-10-31T05:37:51.276Z,68.08
2022-10-31T05:38:51.251Z,67.30
2022-10-31T05:39:51.230Z,69.21
2022-10-31T05:40:51.227Z,68.81
2022-10-31T05:41:51.219Z,68.96
2022-10-31T05:42:51.225Z,68.79
2022-10-31T05:43:51.200Z,68.83
2022-10-31T05:44:51.187Z,69.09
2022-10-31T05:45:51.174Z,69.14
2022-10-31T05:46:51.164Z,69.19
2022-10-31T05:47:51.177Z,68.23
2022-10-31T05:48:51.178Z,67.28
2022-10-31T05:49:51.134Z,67.13
2022-10-31T05:50:51.131Z,67.68
2022-10-31T05:51:51.111Z,67.97
2022-10-31T05:52:51.132Z,67.67
2022-10-31T05:53:51.100Z,69.36
2022-10-31T05:54:51.084Z,69.41
2022-10-31T05:55:51.071Z,69.48
2022-10-31T05:56:51.070Z,69.31
2022-10-31T05:57:51.076Z,69.37
2022-10-31T05:58:51.051Z,69.23
2022-10-31T05:59:54.734Z,67.93
2022-10-31T06:00:52.056Z,68.62
2022-10-31T06:01:51.075Z,68.70
2022-10-31T06:02:51.043Z,69.16
2022-10-31T06:03:51.034Z,69.65
2022-10-31T06:04:51.156Z,69.26
2022-10-31T06:05:54.946Z,69.24
2022-10-31T06:06:50.991Z,69.23
2022-10-31T06:07:50.985Z,69.38
2022-10-31T06:08:50.960Z,70.01
2022-10-31T06:09:50.953Z,69.86
2022-10-31T06:10:50.945Z,70.28
2022-10-31T06:11:50.936Z,69.51
2022-10-31T06:12:50.933Z,69.60
2022-10-31T06:13:50.912Z,71.04
2022-10-31T06:14:50.891Z,70.91
2022-10-31T06:15:50.893Z,70.24
2022-10-31T06:16:50.874Z,70.90
2022-10-31T06:17:51.882Z,71.93
2022-10-31T06:18:50.904Z,71.99
2022-10-31T06:20:50.835Z,71.99
2022-10-31T06:21:50.834Z,72.40
2022-10-31T06:22:50.837Z,72.65
2022-10-31T06:23:50.803Z,72.33
2022-10-31T06:24:50.793Z,72.44
2022-10-31T06:25:50.785Z,71.47
2022-10-31T06:26:50.777Z,71.10
2022-10-31T06:27:50.815Z,70.63
2022-10-31T06:28:50.760Z,70.11
2022-10-31T06:29:50.750Z,71.48
2022-10-31T06:30:50.738Z,72.41
2022-10-31T06:31:50.735Z,71.40
2022-10-31T06:33:18.432Z,70.78
2022-10-31T06:33:50.712Z,69.35
2022-10-31T06:34:50.703Z,69.52
2022-10-31T06:35:50.690Z,69.00
2022-10-31T06:36:50.680Z,69.64
2022-10-31T06:37:50.799Z,69.08
2022-10-31T06:38:50.654Z,67.83
2022-10-31T06:39:50.638Z,68.48
2022-10-31T06:40:50.647Z,67.40
2022-10-31T06:41:50.630Z,67.00
2022-10-31T06:42:50.663Z,67.82
2022-10-31T06:43:50.652Z,67.63
2022-10-31T06:44:50.595Z,68.04
2022-10-31T06:45:50.586Z,67.29
2022-10-31T06:46:50.580Z,66.45
2022-10-31T06:48:14.920Z,67.57
2022-10-31T06:48:52.557Z,66.76
2022-10-31T06:49:50.673Z,67.30
2022-10-31T06:50:50.543Z,67.75
2022-10-31T06:51:50.522Z,68.57
2022-10-31T06:52:50.543Z,68.38
2022-10-31T06:53:50.509Z,67.68
2022-10-31T06:54:50.496Z,67.77
2022-10-31T06:55:50.495Z,67.84
2022-10-31T06:56:50.480Z,66.23
2022-10-31T06:57:51.490Z,66.57
2022-10-31T06:58:50.463Z,67.65
2022-10-31T06:59:50.445Z,68.62
2022-10-31T07:00:50.482Z,67.15
2022-10-31T07:01:50.507Z,66.45
2022-10-31T07:02:50.441Z,68.74
2022-10-31T07:03:50.419Z,68.01
2022-10-31T07:04:50.406Z,67.48
2022-10-31T07:05:50.385Z,67.48
2022-10-31T07:06:51.973Z,67.43
2022-10-31T07:07:51.392Z,68.59
2022-10-31T07:08:50.355Z,68.43
2022-10-31T07:09:50.341Z,70.05
2022-10-31T07:10:50.342Z,70.14
2022-10-31T07:11:50.314Z,68.86
2022-10-31T07:12:50.316Z,68.10
2022-10-31T07:13:50.328Z,68.57
2022-10-31T07:14:50.292Z,69.26
2022-10-31T07:15:50.282Z,67.05
2022-10-31T07:16:50.267Z,67.15
2022-10-31T07:17:50.263Z,66.61
2022-10-31T07:18:50.274Z,66.19
2022-10-31T07:19:50.238Z,65.87
2022-10-31T07:20:50.232Z,65.87
2022-10-31T07:21:50.220Z,66.95
2022-10-31T07:22:50.855Z,68.24
2022-10-31T07:23:51.223Z,67.99
2022-10-31T07:24:50.182Z,67.73
2022-10-31T07:25:50.183Z,67.72
2022-10-31T07:26:50.273Z,68.73
2022-10-31T07:27:51.164Z,68.82
2022-10-31T07:28:50.166Z,66.93
2022-10-31T07:29:50.150Z,68.14
2022-10-31T07:30:50.136Z,68.00
2022-10-31T07:31:50.126Z,68.58
2022-10-31T07:32:50.116Z,68.85
2022-10-31T07:33:50.124Z,68.78
2022-10-31T07:34:50.092Z,68.34
2022-10-31T07:35:50.076Z,68.25
2022-10-31T07:36:50.077Z,66.54
2022-10-31T07:37:50.061Z,66.51
2022-10-31T07:38:50.071Z,66.00
2022-10-31T07:39:50.037Z,66.57
2022-10-31T07:40:50.029Z,66.59
2022-10-31T07:41:50.025Z,66.35
2022-10-31T07:42:50.008Z,66.38
2022-10-31T07:43:50.063Z,66.46
2022-10-31T07:44:51.544Z,67.25
2022-10-31T07:45:49.988Z,67.65
2022-10-31T07:46:49.981Z,66.84
2022-10-31T07:47:49.962Z,65.95
2022-10-31T07:48:49.972Z,65.39
2022-10-31T07:49:49.948Z,66.11
2022-10-31T07:50:49.927Z,65.91
2022-10-31T07:51:49.920Z,66.31
2022-10-31T07:52:49.918Z,63.77
2022-10-31T07:53:49.924Z,64.50
2022-10-31T07:54:49.895Z,63.77
2022-10-31T07:55:49.882Z,65.55
2022-10-31T07:56:49.864Z,65.03
2022-10-31T07:57:49.868Z,65.43
2022-10-31T07:58:49.876Z,64.31
2022-10-31T07:59:49.841Z,66.08
2022-10-31T08:00:49.956Z,64.56
2022-10-31T08:01:49.817Z,65.80
2022-10-31T08:02:49.817Z,65.88
2022-10-31T08:03:49.888Z,65.43
2022-10-31T08:04:49.789Z,65.11
2022-10-31T08:05:49.786Z,65.32
2022-10-31T08:06:49.769Z,64.90
2022-10-31T08:07:49.759Z,65.27
2022-10-31T08:08:49.770Z,65.63
2022-10-31T08:09:49.744Z,65.82
2022-10-31T08:10:49.737Z,67.02
2022-10-31T08:11:49.719Z,65.34
2022-10-31T08:12:49.703Z,65.21
2022-10-31T08:13:49.711Z,65.61
2022-10-31T08:14:49.698Z,66.71
2022-10-31T08:15:49.685Z,65.60
2022-10-31T08:16:49.662Z,66.09
2022-10-31T08:17:49.658Z,66.90
2022-10-31T08:18:49.675Z,65.11
2022-10-31T08:19:49.638Z,66.05
2022-10-31T08:20:49.622Z,66.45
2022-10-31T08:21:49.607Z,65.46
2022-10-31T08:22:49.603Z,66.19
2022-10-31T08:23:49.606Z,66.61
2022-10-31T08:24:49.584Z,65.96
2022-10-31T08:25:49.624Z,66.08
2022-10-31T08:26:49.568Z,66.46
2022-10-31T08:27:49.549Z,66.15
2022-10-31T08:28:49.553Z,67.10
2022-10-31T08:29:49.537Z,66.16
2022-10-31T08:30:49.518Z,65.92
2022-10-31T08:31:49.516Z,65.84
2022-10-31T08:32:49.510Z,66.68
2022-10-31T08:33:49.517Z,67.22
2022-10-31T08:34:49.495Z,66.27
2022-10-31T08:35:49.486Z,66.71
2022-10-31T08:36:49.466Z,66.16
2022-10-31T08:37:49.456Z,65.99
2022-10-31T08:38:49.488Z,65.94
2022-10-31T08:39:49.441Z,65.18
2022-10-31T08:40:49.422Z,65.77
2022-10-31T08:41:49.425Z,66.80
2022-10-31T08:42:49.405Z,65.60
2022-10-31T08:43:49.416Z,64.22
2022-10-31T08:44:49.388Z,65.90
2022-10-31T08:45:49.379Z,64.90
2022-10-31T08:46:49.366Z,65.75
2022-10-31T08:47:49.357Z,65.79
2022-10-31T08:48:49.361Z,65.37
2022-10-31T08:49:49.335Z,64.82
2022-10-31T08:50:49.326Z,65.25
2022-10-31T08:51:49.313Z,65.54
2022-10-31T08:53:04.617Z,64.63
2022-10-31T08:53:51.326Z,64.09
2022-10-31T08:54:49.288Z,64.55
2022-10-31T08:55:49.277Z,65.33
2022-10-31T08:56:49.261Z,64.72
2022-10-31T08:57:49.249Z,63.10
2022-10-31T08:58:49.257Z,62.68
2022-10-31T08:59:49.232Z,63.43
2022-10-31T09:03:34.860Z,64.21
2022-10-31T09:04:34.829Z,62.97
2022-10-31T09:05:34.912Z,63.23
2022-10-31T09:09:01.558Z,62.80
2022-10-31T09:12:28.283Z,63.46
2022-10-31T09:15:55.010Z,63.77
2022-10-31T09:16:55.002Z,65.10
2022-10-31T09:17:54.994Z,62.19
2022-10-31T09:18:55.002Z,61.96
2022-10-31T09:19:54.969Z,62.14
2022-10-31T09:20:54.966Z,62.16
2022-10-31T09:21:54.945Z,61.70
2022-10-31T09:22:56.062Z,63.88
2022-10-31T09:23:56.073Z,62.68
2022-10-31T09:24:56.047Z,63.50
2022-10-31T09:25:56.041Z,63.24
2022-10-31T09:26:56.032Z,62.90
2022-10-31T09:27:56.011Z,64.11
2022-10-31T09:28:56.026Z,64.04
2022-10-31T09:29:56.012Z,63.49
2022-10-31T09:30:55.972Z,65.05
2022-10-31T09:31:55.959Z,63.08
2022-10-31T09:32:55.962Z,65.37
2022-10-31T09:33:55.973Z,63.81
2022-10-31T09:34:55.968Z,62.38
2022-10-31T09:35:55.915Z,63.49
2022-10-31T09:36:55.922Z,63.95
2022-10-31T09:37:55.914Z,65.04
2022-10-31T09:38:55.929Z,64.14
2022-10-31T09:39:55.886Z,63.91
2022-10-31T09:40:55.875Z,64.28
2022-10-31T09:41:57.299Z,62.75
2022-10-31T09:42:56.859Z,65.55
2022-10-31T09:43:55.870Z,63.32
2022-10-31T09:44:55.847Z,64.27
2022-10-31T09:45:55.828Z,63.62
2022-10-31T09:46:55.820Z,65.21
2022-10-31T09:47:55.804Z,64.98
2022-10-31T09:48:55.826Z,63.88
2022-10-31T09:49:55.844Z,63.49
2022-10-31T09:50:55.783Z,65.13
2022-10-31T09:51:55.833Z,63.73
2022-10-31T09:52:55.757Z,65.01
2022-10-31T09:53:55.766Z,65.30
2022-10-31T09:54:55.743Z,64.72
2022-10-31T09:55:55.735Z,62.95
2022-10-31T09:56:55.727Z,63.80
2022-10-31T09:57:55.722Z,65.05
2022-10-31T09:58:55.727Z,65.69
2022-10-31T09:59:55.693Z,64.21
2022-10-31T10:00:55.771Z,65.94
2022-10-31T10:01:55.723Z,64.62
2022-10-31T10:02:55.663Z,62.98
2022-10-31T10:03:55.677Z,65.96
2022-10-31T10:04:55.647Z,64.69
2022-10-31T10:05:55.635Z,65.33
2022-10-31T10:06:55.658Z,67.91
2022-10-31T10:07:55.608Z,64.09
2022-10-31T10:08:55.637Z,64.26
2022-10-31T10:09:55.597Z,64.43
2022-10-31T10:10:55.594Z,65.00
2022-10-31T10:11:55.570Z,65.75
2022-10-31T10:12:55.569Z,65.98
2022-10-31T10:13:55.581Z,64.18
2022-10-31T10:14:55.567Z,62.88
2022-10-31T10:15:55.522Z,63.65
2022-10-31T10:16:55.529Z,64.13
2022-10-31T10:17:55.510Z,63.83
2022-10-31T10:18:55.528Z,63.09
2022-10-31T10:19:55.499Z,65.03
2022-10-31T10:20:55.490Z,63.68
2022-10-31T10:21:55.487Z,66.41
2022-10-31T10:22:55.468Z,63.37
2022-10-31T10:23:55.474Z,64.29
2022-10-31T10:24:55.481Z,66.40
2022-10-31T10:25:55.440Z,64.42
2022-10-31T10:26:55.434Z,66.08
2022-10-31T10:27:55.423Z,63.92
2022-10-31T10:28:55.431Z,65.27
2022-10-31T10:29:55.433Z,63.65
2022-10-31T10:30:55.399Z,63.28
2022-10-31T10:31:55.381Z,64.07
2022-10-31T10:32:55.390Z,64.19
2022-10-31T10:33:55.394Z,64.96
2022-10-31T10:34:55.361Z,63.45
2022-10-31T10:35:55.352Z,64.75
2022-10-31T10:36:55.346Z,65.94
2022-10-31T10:37:55.333Z,65.33
2022-10-31T10:38:55.339Z,65.08
2022-10-31T10:39:55.301Z,65.71
2022-10-31T10:40:55.301Z,64.11
2022-10-31T10:41:55.296Z,64.66
2022-10-31T10:42:55.282Z,64.16
2022-10-31T10:43:55.282Z,63.53
2022-10-31T10:44:55.256Z,64.01
2022-10-31T10:45:55.256Z,65.77
2022-10-31T10:46:55.248Z,65.05
2022-10-31T10:47:55.237Z,63.80
2022-10-31T10:48:55.243Z,64.12
2022-10-31T10:49:55.228Z,66.00
2022-10-31T10:50:55.204Z,62.78
2022-10-31T10:52:12.792Z,64.98
2022-10-31T10:52:57.205Z,64.68
2022-10-31T10:53:55.190Z,64.86
2022-10-31T10:54:55.159Z,65.95
2022-10-31T10:55:55.151Z,62.81
2022-10-31T10:56:55.136Z,64.83
2022-10-31T10:57:55.205Z,64.82
2022-10-31T10:58:55.142Z,65.62
2022-10-31T10:59:55.102Z,63.92
2022-10-31T11:00:55.219Z,65.96
2022-10-31T11:01:55.095Z,64.22
2022-10-31T11:02:55.087Z,62.17
2022-10-31T11:03:55.095Z,64.70
2022-10-31T11:04:55.068Z,63.51
2022-10-31T11:05:55.054Z,64.44
2022-10-31T11:06:55.051Z,64.41
2022-10-31T11:07:55.021Z,66.22
2022-10-31T11:08:55.074Z,65.42
2022-10-31T11:09:55.007Z,66.46
2022-10-31T11:10:55.005Z,63.82
2022-10-31T11:11:54.988Z,63.21
2022-10-31T11:12:54.989Z,64.51
2022-10-31T11:13:55.441Z,64.50
2022-10-31T11:14:54.961Z,64.03
2022-10-31T11:15:54.946Z,63.24
2022-10-31T11:16:54.939Z,63.11
2022-10-31T11:17:54.928Z,63.75
2022-10-31T11:18:54.964Z,65.82
2022-10-31T11:19:54.914Z,66.22
2022-10-31T11:20:54.916Z,66.96
2022-10-31T11:21:54.893Z,65.50
2022-10-31T11:22:54.882Z,63.84
2022-10-31T11:23:54.876Z,64.97
2022-10-31T11:24:54.860Z,63.88
2022-10-31T11:25:54.851Z,63.77
2022-10-31T11:26:54.886Z,64.67
2022-10-31T11:27:54.825Z,65.01
2022-10-31T11:28:54.865Z,63.75
2022-10-31T11:30:00.525Z,65.90
2022-10-31T11:30:56.804Z,63.73
2022-10-31T11:31:54.775Z,65.45
2022-10-31T11:32:54.772Z,66.81
2022-10-31T11:33:54.789Z,65.82
2022-10-31T11:34:54.765Z,65.24
2022-10-31T11:35:57.865Z,65.15
2022-10-31T11:36:54.740Z,64.57
2022-10-31T11:37:54.817Z,65.20
2022-10-31T11:38:54.742Z,65.05
2022-10-31T11:39:54.731Z,64.56
2022-10-31T11:40:54.720Z,65.41
2022-10-31T11:41:54.698Z,65.71
2022-10-31T11:42:54.681Z,65.88
2022-10-31T11:43:54.728Z,65.12
2022-10-31T11:44:55.672Z,64.22
2022-10-31T11:45:54.699Z,65.80
2022-10-31T11:46:54.652Z,65.37
2022-10-31T11:47:59.153Z,64.86
2022-10-31T11:48:55.742Z,65.15
2022-10-31T11:49:54.614Z,64.93
2022-10-31T11:50:54.629Z,62.20
2022-10-31T11:51:54.598Z,63.61
2022-10-31T11:53:57.029Z,64.49
2022-10-31T11:54:55.612Z,66.71
2022-10-31T11:55:54.555Z,65.20
2022-10-31T11:56:54.572Z,66.87
2022-10-31T11:57:55.561Z,65.64
2022-10-31T11:58:54.532Z,66.54
2022-10-31T11:59:54.588Z,64.30
2022-10-31T12:00:54.532Z,66.08
2022-10-31T12:01:54.642Z,65.44
2022-10-31T12:02:54.575Z,66.34
2022-10-31T12:03:54.477Z,65.51
2022-10-31T12:04:55.445Z,65.67
2022-10-31T12:05:54.467Z,65.34
2022-10-31T12:06:54.502Z,64.69
2022-10-31T12:07:54.445Z,67.71
2022-10-31T12:08:54.442Z,64.97
2022-10-31T12:09:54.447Z,66.01
2022-10-31T12:10:54.415Z,66.97
2022-10-31T12:11:54.410Z,66.23
2022-10-31T12:12:54.402Z,66.39
2022-10-31T12:13:54.403Z,66.34
2022-10-31T12:14:54.401Z,65.81
2022-10-31T12:15:54.373Z,64.94
2022-10-31T12:16:54.361Z,65.53
2022-10-31T12:17:54.389Z,65.25
2022-10-31T12:18:54.350Z,64.33
2022-10-31T12:19:56.152Z,65.59
2022-10-31T12:20:54.323Z,65.37
2022-10-31T12:21:54.318Z,64.13
2022-10-31T12:22:54.313Z,65.10
2022-10-31T12:23:54.295Z,65.48
2022-10-31T12:24:54.306Z,64.67
2022-10-31T12:25:54.297Z,64.51
2022-10-31T12:26:56.813Z,63.50
2022-10-31T12:32:07.619Z,64.85
2022-10-31T12:33:07.610Z,62.59
2022-10-31T12:34:14.622Z,63.32
2022-10-31T12:35:07.590Z,65.44
2022-10-31T12:36:09.720Z,66.10
2022-10-31T12:37:08.575Z,65.84
2022-10-31T12:38:07.564Z,62.81
2022-10-31T12:39:07.568Z,63.63
2022-10-31T12:40:07.538Z,65.19
2022-10-31T12:41:07.541Z,63.17
2022-10-31T12:42:07.524Z,62.85
2022-10-31T12:43:07.523Z,62.80
2022-10-31T12:44:07.529Z,61.17
2022-10-31T12:45:07.495Z,62.47
2022-10-31T12:46:07.485Z,63.71
2022-10-31T12:47:07.476Z,62.24
2022-10-31T12:48:07.465Z,63.86
2022-10-31T12:49:08.601Z,64.24
2022-10-31T12:50:08.578Z,62.97
2022-10-31T12:51:08.559Z,64.42
2022-10-31T12:52:08.566Z,63.95
2022-10-31T12:53:08.582Z,64.10
2022-10-31T12:54:08.546Z,66.91
2022-10-31T12:55:08.514Z,61.31
2022-10-31T12:56:08.498Z,62.02
2022-10-31T12:57:08.494Z,64.45
2022-10-31T12:58:08.476Z,64.86
2022-10-31T12:59:08.480Z,61.90
2022-10-31T13:00:08.481Z,64.40
2022-10-31T13:01:08.532Z,62.71
2022-10-31T13:02:08.498Z,63.26
2022-10-31T13:03:08.445Z,64.08
2022-10-31T13:04:08.435Z,63.33
2022-10-31T13:05:08.454Z,65.15
2022-10-31T13:06:08.417Z,63.00
2022-10-31T13:07:08.414Z,62.10
2022-10-31T13:08:08.399Z,64.66
2022-10-31T13:09:08.403Z,64.92
2022-10-31T13:10:08.406Z,62.89
2022-10-31T13:11:08.372Z,64.09
2022-10-31T13:12:08.390Z,64.21
2022-10-31T13:13:08.365Z,62.62
2022-10-31T13:14:08.374Z,64.55
2022-10-31T13:15:08.334Z,65.73
2022-10-31T13:16:08.320Z,63.24
2022-10-31T13:17:08.330Z,64.46
2022-10-31T13:18:08.304Z,64.01
2022-10-31T13:19:08.337Z,65.37
2022-10-31T13:20:08.277Z,65.31
2022-10-31T13:21:08.269Z,64.29
2022-10-31T13:22:08.266Z,62.81
2022-10-31T13:23:23.334Z,64.56
2022-10-31T13:24:10.257Z,63.42
2022-10-31T13:25:08.226Z,64.97
2022-10-31T13:26:08.210Z,65.33